sensor_id;sensor_type;location;lat;lon;timestamp;P1;durP1;ratioP1;P2;durP2;ratioP2
1320;SDS011;653;51.480;11.992;2022-08-18T00:00:00;6.00;;;5.50;;
1320;SDS011;653;51.480;11.992;2022-08-18T00:02:26;8.13;;;6.50;;
1320;SDS011;653;51.480;11.992;2022-08-18T00:04:54;10.60;;;5.77;;
1320;SDS011;653;51.480;11.992;2022-08-18T00:07:26;11.10;;;6.13;;
1320;SDS011;653;51.480;11.992;2022-08-18T00:09:54;6.10;;;5.50;;
1320;SDS011;653;51.480;11.992;2022-08-18T00:12:34;7.90;;;6.23;;
1320;SDS011;653;51.480;11.992;2022-08-18T00:15:04;6.43;;;5.50;;
1320;SDS011;653;51.480;11.992;2022-08-18T00:17:34;11.03;;;6.47;;
1320;SDS011;653;51.480;11.992;2022-08-18T00:20:00;6.77;;;5.70;;
1320;SDS011;653;51.480;11.992;2022-08-18T00:22:28;7.43;;;6.17;;
1320;SDS011;653;51.480;11.992;2022-08-18T00:24:55;7.80;;;6.10;;
1320;SDS011;653;51.480;11.992;2022-08-18T00:27:26;7.10;;;6.27;;
1320;SDS011;653;51.480;11.992;2022-08-18T00:29:56;6.27;;;5.67;;
1320;SDS011;653;51.480;11.992;2022-08-18T00:33:09;8.17;;;6.07;;
1320;SDS011;653;51.480;11.992;2022-08-18T00:35:20;6.20;;;5.60;;
1320;SDS011;653;51.480;11.992;2022-08-18T00:37:52;7.40;;;5.80;;
1320;SDS011;653;51.480;11.992;2022-08-18T00:40:25;8.00;;;5.37;;
1320;SDS011;653;51.480;11.992;2022-08-18T00:43:00;6.73;;;5.80;;
1320;SDS011;653;51.480;11.992;2022-08-18T00:45:30;7.53;;;5.90;;
1320;SDS011;653;51.480;11.992;2022-08-18T00:47:59;6.53;;;5.87;;
1320;SDS011;653;51.480;11.992;2022-08-18T00:50:32;6.50;;;5.90;;
1320;SDS011;653;51.480;11.992;2022-08-18T00:53:09;6.87;;;6.20;;
1320;SDS011;653;51.480;11.992;2022-08-18T00:55:38;10.90;;;7.07;;
1320;SDS011;653;51.480;11.992;2022-08-18T00:58:10;7.33;;;5.63;;
1320;SDS011;653;51.480;11.992;2022-08-18T01:00:41;8.13;;;5.97;;
1320;SDS011;653;51.480;11.992;2022-08-18T01:03:10;6.83;;;6.13;;
1320;SDS011;653;51.480;11.992;2022-08-18T01:05:49;7.00;;;6.40;;
1320;SDS011;653;51.480;11.992;2022-08-18T01:08:23;9.60;;;6.33;;
1320;SDS011;653;51.480;11.992;2022-08-18T01:10:48;6.37;;;5.70;;
1320;SDS011;653;51.480;11.992;2022-08-18T01:13:32;6.43;;;5.17;;
1320;SDS011;653;51.480;11.992;2022-08-18T01:15:59;12.20;;;6.43;;
1320;SDS011;653;51.480;11.992;2022-08-18T01:18:45;9.40;;;5.87;;
1320;SDS011;653;51.480;11.992;2022-08-18T01:21:32;5.93;;;5.43;;
1320;SDS011;653;51.480;11.992;2022-08-18T01:24:25;6.30;;;5.70;;
1320;SDS011;653;51.480;11.992;2022-08-18T01:27:12;7.73;;;6.40;;
1320;SDS011;653;51.480;11.992;2022-08-18T01:29:46;7.10;;;6.40;;
1320;SDS011;653;51.480;11.992;2022-08-18T01:32:18;6.27;;;5.67;;
1320;SDS011;653;51.480;11.992;2022-08-18T01:34:47;6.77;;;6.17;;
1320;SDS011;653;51.480;11.992;2022-08-18T01:37:16;10.50;;;6.43;;
1320;SDS011;653;51.480;11.992;2022-08-18T01:39:44;8.70;;;5.83;;
1320;SDS011;653;51.480;11.992;2022-08-18T01:42:10;6.47;;;5.83;;
1320;SDS011;653;51.480;11.992;2022-08-18T01:44:38;7.10;;;6.50;;
1320;SDS011;653;51.480;11.992;2022-08-18T01:47:07;5.97;;;5.47;;
1320;SDS011;653;51.480;11.992;2022-08-18T01:49:35;6.00;;;5.50;;
1320;SDS011;653;51.480;11.992;2022-08-18T01:52:03;6.50;;;6.00;;
1320;SDS011;653;51.480;11.992;2022-08-18T01:54:35;6.70;;;6.00;;
1320;SDS011;653;51.480;11.992;2022-08-18T01:57:03;6.80;;;5.90;;
1320;SDS011;653;51.480;11.992;2022-08-18T01:59:30;6.73;;;5.90;;
1320;SDS011;653;51.480;11.992;2022-08-18T02:01:57;7.90;;;6.00;;
1320;SDS011;653;51.480;11.992;2022-08-18T02:04:25;6.73;;;6.00;;
1320;SDS011;653;51.480;11.992;2022-08-18T02:06:54;6.77;;;6.03;;
1320;SDS011;653;51.480;11.992;2022-08-18T02:09:20;7.73;;;6.40;;
1320;SDS011;653;51.480;11.992;2022-08-18T02:11:47;9.57;;;6.40;;
1320;SDS011;653;51.480;11.992;2022-08-18T02:14:13;7.47;;;6.77;;
1320;SDS011;653;51.480;11.992;2022-08-18T02:16:39;7.27;;;6.30;;
1320;SDS011;653;51.480;11.992;2022-08-18T02:19:06;9.70;;;6.33;;
1320;SDS011;653;51.480;11.992;2022-08-18T02:21:33;7.40;;;6.60;;
1320;SDS011;653;51.480;11.992;2022-08-18T02:23:59;6.07;;;5.47;;
1320;SDS011;653;51.480;11.992;2022-08-18T02:26:26;7.83;;;6.60;;
1320;SDS011;653;51.480;11.992;2022-08-18T02:28:53;6.90;;;6.37;;
1320;SDS011;653;51.480;11.992;2022-08-18T02:31:20;8.40;;;6.70;;
1320;SDS011;653;51.480;11.992;2022-08-18T02:33:48;11.63;;;6.33;;
1320;SDS011;653;51.480;11.992;2022-08-18T02:36:15;7.10;;;6.40;;
1320;SDS011;653;51.480;11.992;2022-08-18T02:38:42;6.40;;;5.80;;
1320;SDS011;653;51.480;11.992;2022-08-18T02:41:10;7.37;;;6.17;;
1320;SDS011;653;51.480;11.992;2022-08-18T02:43:38;7.00;;;5.90;;
1320;SDS011;653;51.480;11.992;2022-08-18T02:46:07;7.00;;;6.37;;
1320;SDS011;653;51.480;11.992;2022-08-18T02:48:34;6.63;;;5.93;;
1320;SDS011;653;51.480;11.992;2022-08-18T02:51:07;6.47;;;5.93;;
1320;SDS011;653;51.480;11.992;2022-08-18T02:53:38;7.23;;;6.63;;
1320;SDS011;653;51.480;11.992;2022-08-18T02:56:14;6.80;;;5.90;;
1320;SDS011;653;51.480;11.992;2022-08-18T02:58:46;7.83;;;6.60;;
1320;SDS011;653;51.480;11.992;2022-08-18T03:01:11;7.37;;;6.27;;
1320;SDS011;653;51.480;11.992;2022-08-18T03:03:39;6.53;;;6.03;;
1320;SDS011;653;51.480;11.992;2022-08-18T03:06:06;7.83;;;6.40;;
1320;SDS011;653;51.480;11.992;2022-08-18T03:08:32;8.17;;;6.77;;
1320;SDS011;653;51.480;11.992;2022-08-18T03:10:58;8.03;;;7.10;;
1320;SDS011;653;51.480;11.992;2022-08-18T03:13:25;11.53;;;6.90;;
1320;SDS011;653;51.480;11.992;2022-08-18T03:15:51;9.80;;;7.03;;
1320;SDS011;653;51.480;11.992;2022-08-18T03:18:17;6.87;;;6.23;;
1320;SDS011;653;51.480;11.992;2022-08-18T03:20:43;6.90;;;6.27;;
1320;SDS011;653;51.480;11.992;2022-08-18T03:23:10;6.33;;;5.83;;
1320;SDS011;653;51.480;11.992;2022-08-18T03:25:41;8.73;;;6.77;;
1320;SDS011;653;51.480;11.992;2022-08-18T03:28:09;7.13;;;6.03;;
1320;SDS011;653;51.480;11.992;2022-08-18T03:30:36;8.00;;;6.80;;
1320;SDS011;653;51.480;11.992;2022-08-18T03:33:01;6.77;;;6.17;;
1320;SDS011;653;51.480;11.992;2022-08-18T03:35:27;8.53;;;6.53;;
1320;SDS011;653;51.480;11.992;2022-08-18T03:37:57;6.83;;;6.00;;
1320;SDS011;653;51.480;11.992;2022-08-18T03:40:23;7.57;;;6.13;;
1320;SDS011;653;51.480;11.992;2022-08-18T03:42:49;8.93;;;6.73;;
1320;SDS011;653;51.480;11.992;2022-08-18T03:45:16;8.57;;;6.67;;
1320;SDS011;653;51.480;11.992;2022-08-18T03:47:42;7.47;;;6.70;;
1320;SDS011;653;51.480;11.992;2022-08-18T03:50:11;7.13;;;6.43;;
1320;SDS011;653;51.480;11.992;2022-08-18T03:52:38;7.67;;;6.50;;
1320;SDS011;653;51.480;11.992;2022-08-18T03:55:04;8.40;;;6.20;;
1320;SDS011;653;51.480;11.992;2022-08-18T03:57:31;7.03;;;6.43;;
1320;SDS011;653;51.480;11.992;2022-08-18T03:59:58;6.90;;;6.20;;
1320;SDS011;653;51.480;11.992;2022-08-18T04:02:25;7.73;;;5.70;;
1320;SDS011;653;51.480;11.992;2022-08-18T04:04:53;9.53;;;6.43;;
1320;SDS011;653;51.480;11.992;2022-08-18T04:07:19;10.57;;;6.43;;
1320;SDS011;653;51.480;11.992;2022-08-18T04:09:46;7.20;;;6.60;;
1320;SDS011;653;51.480;11.992;2022-08-18T04:12:12;6.90;;;6.20;;
1320;SDS011;653;51.480;11.992;2022-08-18T04:14:39;7.00;;;5.73;;
1320;SDS011;653;51.480;11.992;2022-08-18T04:17:07;7.47;;;6.73;;
1320;SDS011;653;51.480;11.992;2022-08-18T04:19:35;7.23;;;6.63;;
1320;SDS011;653;51.480;11.992;2022-08-18T04:22:01;13.63;;;6.47;;
1320;SDS011;653;51.480;11.992;2022-08-18T04:24:29;7.10;;;6.40;;
1320;SDS011;653;51.480;11.992;2022-08-18T04:26:57;7.53;;;6.80;;
1320;SDS011;653;51.480;11.992;2022-08-18T04:29:24;7.83;;;7.10;;
1320;SDS011;653;51.480;11.992;2022-08-18T04:31:51;8.07;;;7.40;;
1320;SDS011;653;51.480;11.992;2022-08-18T04:34:18;7.67;;;6.97;;
1320;SDS011;653;51.480;11.992;2022-08-18T04:36:46;8.30;;;7.50;;
1320;SDS011;653;51.480;11.992;2022-08-18T04:39:12;8.17;;;7.23;;
1320;SDS011;653;51.480;11.992;2022-08-18T04:41:40;8.37;;;7.03;;
1320;SDS011;653;51.480;11.992;2022-08-18T04:44:07;9.70;;;7.37;;
1320;SDS011;653;51.480;11.992;2022-08-18T04:46:35;7.50;;;6.90;;
1320;SDS011;653;51.480;11.992;2022-08-18T04:49:05;9.17;;;8.20;;
1320;SDS011;653;51.480;11.992;2022-08-18T04:51:33;10.27;;;9.27;;
1320;SDS011;653;51.480;11.992;2022-08-18T04:54:01;9.07;;;8.27;;
1320;SDS011;653;51.480;11.992;2022-08-18T04:56:28;8.17;;;7.47;;
1320;SDS011;653;51.480;11.992;2022-08-18T04:58:58;10.57;;;9.53;;
1320;SDS011;653;51.480;11.992;2022-08-18T05:01:52;12.80;;;10.80;;
1320;SDS011;653;51.480;11.992;2022-08-18T05:04:19;12.00;;;10.80;;
1320;SDS011;653;51.480;11.992;2022-08-18T05:06:49;12.33;;;11.33;;
1320;SDS011;653;51.480;11.992;2022-08-18T05:09:15;14.33;;;11.67;;
1320;SDS011;653;51.480;11.992;2022-08-18T05:11:43;16.17;;;12.87;;
1320;SDS011;653;51.480;11.992;2022-08-18T05:14:10;17.13;;;12.93;;
1320;SDS011;653;51.480;11.992;2022-08-18T05:16:37;15.47;;;14.07;;
1320;SDS011;653;51.480;11.992;2022-08-18T05:19:11;18.77;;;16.80;;
1320;SDS011;653;51.480;11.992;2022-08-18T05:21:38;19.30;;;17.50;;
1320;SDS011;653;51.480;11.992;2022-08-18T05:24:06;19.83;;;17.93;;
1320;SDS011;653;51.480;11.992;2022-08-18T05:26:34;18.53;;;16.83;;
1320;SDS011;653;51.480;11.992;2022-08-18T05:29:02;21.03;;;16.53;;
1320;SDS011;653;51.480;11.992;2022-08-18T05:31:32;18.30;;;16.50;;
1320;SDS011;653;51.480;11.992;2022-08-18T05:33:59;22.57;;;20.27;;
1320;SDS011;653;51.480;11.992;2022-08-18T05:39:44;20.70;;;18.80;;
1320;SDS011;653;51.480;11.992;2022-08-18T05:42:22;22.97;;;20.57;;
1320;SDS011;653;51.480;11.992;2022-08-18T05:44:51;24.50;;;19.63;;
1320;SDS011;653;51.480;11.992;2022-08-18T05:47:25;24.20;;;21.87;;
1320;SDS011;653;51.480;11.992;2022-08-18T05:49:55;22.20;;;19.93;;
1320;SDS011;653;51.480;11.992;2022-08-18T05:52:36;24.40;;;21.80;;
1320;SDS011;653;51.480;11.992;2022-08-18T05:58:24;23.63;;;21.03;;
1320;SDS011;653;51.480;11.992;2022-08-18T06:01:03;22.60;;;20.17;;
1320;SDS011;653;51.480;11.992;2022-08-18T06:03:40;22.80;;;20.67;;
1320;SDS011;653;51.480;11.992;2022-08-18T06:06:12;25.90;;;22.03;;
1320;SDS011;653;51.480;11.992;2022-08-18T06:11:27;23.73;;;21.43;;
1320;SDS011;653;51.480;11.992;2022-08-18T06:13:55;23.37;;;20.97;;
1320;SDS011;653;51.480;11.992;2022-08-18T06:19:33;24.23;;;21.90;;
1320;SDS011;653;51.480;11.992;2022-08-18T06:22:39;23.63;;;21.33;;
1320;SDS011;653;51.480;11.992;2022-08-18T06:29:03;26.53;;;23.97;;
1320;SDS011;653;51.480;11.992;2022-08-18T06:31:57;25.27;;;22.57;;
1320;SDS011;653;51.480;11.992;2022-08-18T06:34:53;27.43;;;24.03;;
1320;SDS011;653;51.480;11.992;2022-08-18T06:40:59;26.73;;;24.13;;
1320;SDS011;653;51.480;11.992;2022-08-18T06:43:40;28.30;;;23.10;;
1320;SDS011;653;51.480;11.992;2022-08-18T06:46:14;27.63;;;24.93;;
1320;SDS011;653;51.480;11.992;2022-08-18T06:48:52;29.43;;;26.30;;
1320;SDS011;653;51.480;11.992;2022-08-18T06:51:20;27.03;;;24.27;;
1320;SDS011;653;51.480;11.992;2022-08-18T07:02:21;28.43;;;25.47;;
1320;SDS011;653;51.480;11.992;2022-08-18T07:08:19;24.20;;;21.70;;
1320;SDS011;653;51.480;11.992;2022-08-18T07:14:40;26.87;;;23.97;;
1320;SDS011;653;51.480;11.992;2022-08-18T07:17:40;26.43;;;23.80;;
1320;SDS011;653;51.480;11.992;2022-08-18T07:19:57;24.73;;;22.20;;
1320;SDS011;653;51.480;11.992;2022-08-18T07:23:02;23.03;;;20.73;;
1320;SDS011;653;51.480;11.992;2022-08-18T07:25:27;24.07;;;21.77;;
1320;SDS011;653;51.480;11.992;2022-08-18T07:27:55;25.13;;;22.73;;
1320;SDS011;653;51.480;11.992;2022-08-18T07:35:49;22.13;;;20.23;;
1320;SDS011;653;51.480;11.992;2022-08-18T07:41:31;23.67;;;21.37;;
1320;SDS011;653;51.480;11.992;2022-08-18T07:47:37;24.67;;;22.27;;
1320;SDS011;653;51.480;11.992;2022-08-18T07:50:06;23.93;;;21.53;;
1320;SDS011;653;51.480;11.992;2022-08-18T07:55:35;23.70;;;21.30;;
1320;SDS011;653;51.480;11.992;2022-08-18T08:07:13;21.53;;;19.63;;
1320;SDS011;653;51.480;11.992;2022-08-18T08:10:09;19.73;;;17.73;;
1320;SDS011;653;51.480;11.992;2022-08-18T08:16:13;22.67;;;18.23;;
1320;SDS011;653;51.480;11.992;2022-08-18T08:19:23;20.37;;;18.20;;
1320;SDS011;653;51.480;11.992;2022-08-18T08:22:36;21.73;;;19.57;;
1320;SDS011;653;51.480;11.992;2022-08-18T08:28:07;18.60;;;16.90;;
1320;SDS011;653;51.480;11.992;2022-08-18T08:30:30;21.93;;;19.00;;
1320;SDS011;653;51.480;11.992;2022-08-18T08:36:13;20.53;;;18.47;;
1320;SDS011;653;51.480;11.992;2022-08-18T08:39:08;21.00;;;18.77;;
1320;SDS011;653;51.480;11.992;2022-08-18T08:42:19;21.53;;;19.23;;
1320;SDS011;653;51.480;11.992;2022-08-18T08:44:56;22.50;;;20.10;;
1320;SDS011;653;51.480;11.992;2022-08-18T08:47:30;22.97;;;18.93;;
1320;SDS011;653;51.480;11.992;2022-08-18T08:50:10;20.50;;;18.50;;
1320;SDS011;653;51.480;11.992;2022-08-18T08:55:45;22.77;;;19.60;;
1320;SDS011;653;51.480;11.992;2022-08-18T09:00:47;23.20;;;19.33;;
1320;SDS011;653;51.480;11.992;2022-08-18T09:06:36;21.00;;;18.70;;
1320;SDS011;653;51.480;11.992;2022-08-18T09:18:37;21.70;;;19.47;;
1320;SDS011;653;51.480;11.992;2022-08-18T09:24:27;23.13;;;20.87;;
1320;SDS011;653;51.480;11.992;2022-08-18T09:30:01;22.30;;;20.30;;
1320;SDS011;653;51.480;11.992;2022-08-18T09:32:33;20.60;;;18.40;;
1320;SDS011;653;51.480;11.992;2022-08-18T09:38:16;19.70;;;17.90;;
1320;SDS011;653;51.480;11.992;2022-08-18T09:41:21;22.43;;;19.13;;
1320;SDS011;653;51.480;11.992;2022-08-18T09:44:04;21.20;;;19.30;;
1320;SDS011;653;51.480;11.992;2022-08-18T09:47:03;20.20;;;18.10;;
1320;SDS011;653;51.480;11.992;2022-08-18T09:49:47;20.33;;;17.80;;
1320;SDS011;653;51.480;11.992;2022-08-18T10:13:25;20.83;;;18.93;;
1320;SDS011;653;51.480;11.992;2022-08-18T10:19:05;21.43;;;19.37;;
1320;SDS011;653;51.480;11.992;2022-08-18T10:22:12;20.43;;;18.40;;
1320;SDS011;653;51.480;11.992;2022-08-18T10:24:51;19.07;;;17.10;;
1320;SDS011;653;51.480;11.992;2022-08-18T10:30:07;20.73;;;18.83;;
1320;SDS011;653;51.480;11.992;2022-08-18T10:32:53;19.67;;;17.57;;
1320;SDS011;653;51.480;11.992;2022-08-18T10:38:08;17.43;;;15.90;;
1320;SDS011;653;51.480;11.992;2022-08-18T10:40:37;21.20;;;19.20;;
1320;SDS011;653;51.480;11.992;2022-08-18T10:43:18;18.70;;;16.87;;
1320;SDS011;653;51.480;11.992;2022-08-18T10:46:04;19.53;;;17.60;;
1320;SDS011;653;51.480;11.992;2022-08-18T10:48:39;18.73;;;16.93;;
1320;SDS011;653;51.480;11.992;2022-08-18T10:56:49;15.47;;;14.17;;
1320;SDS011;653;51.480;11.992;2022-08-18T10:59:47;14.67;;;13.07;;
1320;SDS011;653;51.480;11.992;2022-08-18T11:05:11;13.43;;;12.33;;
1320;SDS011;653;51.480;11.992;2022-08-18T11:07:40;13.60;;;12.20;;
1320;SDS011;653;51.480;11.992;2022-08-18T11:10:44;12.27;;;11.17;;
1320;SDS011;653;51.480;11.992;2022-08-18T11:19:05;15.57;;;14.23;;
1320;SDS011;653;51.480;11.992;2022-08-18T11:21:39;16.60;;;15.10;;
1320;SDS011;653;51.480;11.992;2022-08-18T11:26:57;14.30;;;13.10;;
1320;SDS011;653;51.480;11.992;2022-08-18T11:32:07;17.33;;;15.50;;
1320;SDS011;653;51.480;11.992;2022-08-18T11:34:50;19.03;;;16.83;;
1320;SDS011;653;51.480;11.992;2022-08-18T11:37:35;16.17;;;14.77;;
1320;SDS011;653;51.480;11.992;2022-08-18T12:07:08;16.30;;;14.73;;
1320;SDS011;653;51.480;11.992;2022-08-18T12:09:42;16.77;;;14.97;;
1320;SDS011;653;51.480;11.992;2022-08-18T12:12:14;19.67;;;14.30;;
1320;SDS011;653;51.480;11.992;2022-08-18T12:14:54;16.23;;;14.73;;
1320;SDS011;653;51.480;11.992;2022-08-18T12:17:25;15.13;;;13.57;;
1320;SDS011;653;51.480;11.992;2022-08-18T12:19:53;21.10;;;15.07;;
1320;SDS011;653;51.480;11.992;2022-08-18T12:22:22;15.60;;;14.30;;
1320;SDS011;653;51.480;11.992;2022-08-18T12:24:54;17.20;;;15.70;;
1320;SDS011;653;51.480;11.992;2022-08-18T12:27:37;15.47;;;13.93;;
1320;SDS011;653;51.480;11.992;2022-08-18T12:30:06;18.27;;;15.00;;
1320;SDS011;653;51.480;11.992;2022-08-18T12:32:33;15.30;;;13.90;;
1320;SDS011;653;51.480;11.992;2022-08-18T12:35:00;15.00;;;13.70;;
1320;SDS011;653;51.480;11.992;2022-08-18T12:37:27;17.00;;;15.50;;
1320;SDS011;653;51.480;11.992;2022-08-18T12:39:55;16.33;;;14.53;;
1320;SDS011;653;51.480;11.992;2022-08-18T12:42:25;15.20;;;13.80;;
1320;SDS011;653;51.480;11.992;2022-08-18T12:44:54;17.80;;;14.70;;
1320;SDS011;653;51.480;11.992;2022-08-18T12:47:21;16.90;;;13.90;;
1320;SDS011;653;51.480;11.992;2022-08-18T12:49:48;14.77;;;13.50;;
1320;SDS011;653;51.480;11.992;2022-08-18T12:52:14;16.10;;;14.50;;
1320;SDS011;653;51.480;11.992;2022-08-18T12:54:42;15.13;;;13.87;;
1320;SDS011;653;51.480;11.992;2022-08-18T12:57:18;16.40;;;14.47;;
1320;SDS011;653;51.480;11.992;2022-08-18T12:59:47;15.57;;;14.03;;
1320;SDS011;653;51.480;11.992;2022-08-18T13:02:13;17.37;;;14.63;;
1320;SDS011;653;51.480;11.992;2022-08-18T13:04:42;16.13;;;14.40;;
1320;SDS011;653;51.480;11.992;2022-08-18T13:07:09;15.27;;;13.83;;
1320;SDS011;653;51.480;11.992;2022-08-18T13:09:38;18.53;;;14.80;;
1320;SDS011;653;51.480;11.992;2022-08-18T13:12:05;16.20;;;14.70;;
1320;SDS011;653;51.480;11.992;2022-08-18T13:14:31;17.83;;;15.70;;
1320;SDS011;653;51.480;11.992;2022-08-18T13:16:57;16.80;;;15.40;;
1320;SDS011;653;51.480;11.992;2022-08-18T13:19:24;17.80;;;16.00;;
1320;SDS011;653;51.480;11.992;2022-08-18T13:21:50;17.13;;;15.63;;
1320;SDS011;653;51.480;11.992;2022-08-18T13:24:15;16.07;;;14.37;;
1320;SDS011;653;51.480;11.992;2022-08-18T13:26:44;17.97;;;16.27;;
1320;SDS011;653;51.480;11.992;2022-08-18T13:29:12;16.23;;;14.70;;
1320;SDS011;653;51.480;11.992;2022-08-18T13:31:43;16.83;;;15.13;;
1320;SDS011;653;51.480;11.992;2022-08-18T13:34:12;16.73;;;15.00;;
1320;SDS011;653;51.480;11.992;2022-08-18T13:36:39;15.70;;;14.50;;
1320;SDS011;653;51.480;11.992;2022-08-18T13:39:15;16.83;;;15.10;;
1320;SDS011;653;51.480;11.992;2022-08-18T13:41:45;17.33;;;15.83;;
1320;SDS011;653;51.480;11.992;2022-08-18T13:44:14;20.43;;;18.13;;
1320;SDS011;653;51.480;11.992;2022-08-18T13:46:44;20.70;;;18.70;;
1320;SDS011;653;51.480;11.992;2022-08-18T13:49:18;26.00;;;23.70;;
1320;SDS011;653;51.480;11.992;2022-08-18T13:51:46;23.00;;;20.60;;
1320;SDS011;653;51.480;11.992;2022-08-18T13:54:23;22.07;;;19.93;;
1320;SDS011;653;51.480;11.992;2022-08-18T13:56:52;20.67;;;18.80;;
1320;SDS011;653;51.480;11.992;2022-08-18T13:59:20;21.07;;;18.90;;
1320;SDS011;653;51.480;11.992;2022-08-18T14:01:47;22.60;;;18.63;;
1320;SDS011;653;51.480;11.992;2022-08-18T14:04:15;20.23;;;18.53;;
1320;SDS011;653;51.480;11.992;2022-08-18T14:06:44;20.40;;;18.50;;
1320;SDS011;653;51.480;11.992;2022-08-18T14:09:11;26.53;;;19.97;;
1320;SDS011;653;51.480;11.992;2022-08-18T14:11:39;21.50;;;19.60;;
1320;SDS011;653;51.480;11.992;2022-08-18T14:14:06;20.37;;;17.83;;
1320;SDS011;653;51.480;11.992;2022-08-18T14:16:33;21.60;;;19.50;;
1320;SDS011;653;51.480;11.992;2022-08-18T14:19:01;20.50;;;18.60;;
1320;SDS011;653;51.480;11.992;2022-08-18T14:21:48;20.27;;;18.20;;
1320;SDS011;653;51.480;11.992;2022-08-18T14:24:36;20.30;;;18.60;;
1320;SDS011;653;51.480;11.992;2022-08-18T14:27:30;20.03;;;18.33;;
1320;SDS011;653;51.480;11.992;2022-08-18T14:30:04;19.57;;;18.00;;
1320;SDS011;653;51.480;11.992;2022-08-18T14:32:47;19.90;;;18.00;;
1320;SDS011;653;51.480;11.992;2022-08-18T14:35:14;17.50;;;16.07;;
1320;SDS011;653;51.480;11.992;2022-08-18T14:37:41;19.03;;;17.43;;
1320;SDS011;653;51.480;11.992;2022-08-18T14:40:08;18.27;;;16.60;;
1320;SDS011;653;51.480;11.992;2022-08-18T14:42:35;16.93;;;15.33;;
1320;SDS011;653;51.480;11.992;2022-08-18T14:45:04;17.00;;;15.43;;
1320;SDS011;653;51.480;11.992;2022-08-18T14:47:33;17.10;;;15.37;;
1320;SDS011;653;51.480;11.992;2022-08-18T14:49:59;19.57;;;17.50;;
1320;SDS011;653;51.480;11.992;2022-08-18T14:52:25;18.77;;;17.13;;
1320;SDS011;653;51.480;11.992;2022-08-18T14:54:53;18.83;;;16.97;;
1320;SDS011;653;51.480;11.992;2022-08-18T14:57:19;20.47;;;17.10;;
1320;SDS011;653;51.480;11.992;2022-08-18T14:59:46;19.00;;;17.20;;
1320;SDS011;653;51.480;11.992;2022-08-18T15:02:11;20.73;;;18.60;;
1320;SDS011;653;51.480;11.992;2022-08-18T15:04:37;20.60;;;18.57;;
1320;SDS011;653;51.480;11.992;2022-08-18T15:07:05;25.60;;;22.50;;
1320;SDS011;653;51.480;11.992;2022-08-18T15:09:32;20.80;;;18.77;;
1320;SDS011;653;51.480;11.992;2022-08-18T15:11:59;21.80;;;19.83;;
1320;SDS011;653;51.480;11.992;2022-08-18T15:14:26;20.23;;;18.53;;
1320;SDS011;653;51.480;11.992;2022-08-18T15:16:57;20.70;;;18.77;;
1320;SDS011;653;51.480;11.992;2022-08-18T15:19:32;22.50;;;20.20;;
1320;SDS011;653;51.480;11.992;2022-08-18T15:21:59;21.77;;;19.50;;
1320;SDS011;653;51.480;11.992;2022-08-18T15:24:46;21.73;;;19.87;;
1320;SDS011;653;51.480;11.992;2022-08-18T15:27:36;22.53;;;20.70;;
1320;SDS011;653;51.480;11.992;2022-08-18T15:30:08;24.10;;;21.87;;
1320;SDS011;653;51.480;11.992;2022-08-18T15:32:41;23.83;;;21.63;;
1320;SDS011;653;51.480;11.992;2022-08-18T15:35:10;24.67;;;22.23;;
1320;SDS011;653;51.480;11.992;2022-08-18T15:37:38;25.50;;;23.23;;
1320;SDS011;653;51.480;11.992;2022-08-18T15:40:18;26.07;;;23.10;;
1320;SDS011;653;51.480;11.992;2022-08-18T15:42:49;23.37;;;21.00;;
1320;SDS011;653;51.480;11.992;2022-08-18T15:45:24;25.23;;;22.77;;
1320;SDS011;653;51.480;11.992;2022-08-18T15:47:58;25.20;;;23.00;;
1320;SDS011;653;51.480;11.992;2022-08-18T15:50:24;24.10;;;22.00;;
1320;SDS011;653;51.480;11.992;2022-08-18T15:52:52;22.97;;;20.87;;
1320;SDS011;653;51.480;11.992;2022-08-18T15:55:21;24.33;;;22.13;;
1320;SDS011;653;51.480;11.992;2022-08-18T15:57:47;21.50;;;19.60;;
1320;SDS011;653;51.480;11.992;2022-08-18T16:00:14;21.43;;;19.53;;
1320;SDS011;653;51.480;11.992;2022-08-18T16:02:47;21.53;;;19.53;;
1320;SDS011;653;51.480;11.992;2022-08-18T16:05:16;20.13;;;18.20;;
1320;SDS011;653;51.480;11.992;2022-08-18T16:07:50;20.53;;;18.67;;
1320;SDS011;653;51.480;11.992;2022-08-18T16:10:19;25.00;;;19.23;;
1320;SDS011;653;51.480;11.992;2022-08-18T16:12:50;23.53;;;21.43;;
1320;SDS011;653;51.480;11.992;2022-08-18T16:15:18;20.77;;;18.77;;
1320;SDS011;653;51.480;11.992;2022-08-18T16:17:46;21.33;;;19.53;;
1320;SDS011;653;51.480;11.992;2022-08-18T16:20:13;20.77;;;18.97;;
1320;SDS011;653;51.480;11.992;2022-08-18T16:22:40;21.77;;;19.53;;
1320;SDS011;653;51.480;11.992;2022-08-18T16:25:07;23.03;;;20.83;;
1320;SDS011;653;51.480;11.992;2022-08-18T16:27:38;23.63;;;21.10;;
1320;SDS011;653;51.480;11.992;2022-08-18T16:30:15;24.50;;;22.00;;
1320;SDS011;653;51.480;11.992;2022-08-18T16:32:43;25.07;;;22.70;;
1320;SDS011;653;51.480;11.992;2022-08-18T16:35:10;23.73;;;21.33;;
1320;SDS011;653;51.480;11.992;2022-08-18T16:37:38;23.27;;;20.87;;
1320;SDS011;653;51.480;11.992;2022-08-18T16:40:05;24.17;;;21.93;;
1320;SDS011;653;51.480;11.992;2022-08-18T16:42:34;24.90;;;22.57;;
1320;SDS011;653;51.480;11.992;2022-08-18T16:45:01;28.03;;;23.33;;
1320;SDS011;653;51.480;11.992;2022-08-18T16:47:33;24.77;;;22.40;;
1320;SDS011;653;51.480;11.992;2022-08-18T16:50:22;24.77;;;22.27;;
1320;SDS011;653;51.480;11.992;2022-08-18T16:52:50;26.07;;;23.30;;
1320;SDS011;653;51.480;11.992;2022-08-18T16:55:16;23.97;;;21.70;;
1320;SDS011;653;51.480;11.992;2022-08-18T16:57:43;22.63;;;20.23;;
1320;SDS011;653;51.480;11.992;2022-08-18T17:00:30;23.60;;;21.50;;
1320;SDS011;653;51.480;11.992;2022-08-18T17:03:16;22.60;;;20.40;;
1320;SDS011;653;51.480;11.992;2022-08-18T17:06:04;21.60;;;19.53;;
1320;SDS011;653;51.480;11.992;2022-08-18T17:08:33;22.40;;;20.10;;
1320;SDS011;653;51.480;11.992;2022-08-18T17:11:02;21.27;;;19.17;;
1320;SDS011;653;51.480;11.992;2022-08-18T17:13:34;22.00;;;19.90;;
1320;SDS011;653;51.480;11.992;2022-08-18T17:16:05;20.33;;;18.63;;
1320;SDS011;653;51.480;11.992;2022-08-18T17:18:33;21.30;;;19.30;;
1320;SDS011;653;51.480;11.992;2022-08-18T17:21:11;23.10;;;20.73;;
1320;SDS011;653;51.480;11.992;2022-08-18T17:23:39;23.10;;;20.93;;
1320;SDS011;653;51.480;11.992;2022-08-18T17:26:11;22.53;;;20.00;;
1320;SDS011;653;51.480;11.992;2022-08-18T17:29:25;20.97;;;18.97;;
1320;SDS011;653;51.480;11.992;2022-08-18T17:32:05;22.10;;;19.83;;
1320;SDS011;653;51.480;11.992;2022-08-18T17:35:17;21.13;;;19.13;;
1320;SDS011;653;51.480;11.992;2022-08-18T17:37:51;22.67;;;19.50;;
1320;SDS011;653;51.480;11.992;2022-08-18T17:40:25;21.50;;;19.50;;
1320;SDS011;653;51.480;11.992;2022-08-18T17:42:56;20.33;;;18.57;;
1320;SDS011;653;51.480;11.992;2022-08-18T17:45:27;19.60;;;17.70;;
1320;SDS011;653;51.480;11.992;2022-08-18T17:47:59;20.90;;;18.90;;
1320;SDS011;653;51.480;11.992;2022-08-18T17:50:54;20.53;;;18.33;;
1320;SDS011;653;51.480;11.992;2022-08-18T17:53:56;19.13;;;17.33;;
1320;SDS011;653;51.480;11.992;2022-08-18T17:56:34;20.17;;;18.30;;
1320;SDS011;653;51.480;11.992;2022-08-18T18:02:49;19.77;;;17.80;;
1320;SDS011;653;51.480;11.992;2022-08-18T18:05:18;19.23;;;17.40;;
1320;SDS011;653;51.480;11.992;2022-08-18T18:10:33;18.63;;;16.80;;
1320;SDS011;653;51.480;11.992;2022-08-18T18:15:49;17.63;;;16.03;;
1320;SDS011;653;51.480;11.992;2022-08-18T18:23:45;16.83;;;15.00;;
1320;SDS011;653;51.480;11.992;2022-08-18T18:29:23;17.60;;;15.80;;
1320;SDS011;653;51.480;11.992;2022-08-18T18:31:58;17.40;;;15.70;;
1320;SDS011;653;51.480;11.992;2022-08-18T18:34:32;17.43;;;15.93;;
1320;SDS011;653;51.480;11.992;2022-08-18T18:37:29;18.03;;;16.23;;